Time;durP1;ratioP1;P1;durP2;ratioP2;P2;SDS_P1;SDS_P2;PMS_P1;PMS_P2;Temp;Humidity;BMP_temperature;BMP_pressure;BME280_temperature;BME280_humidity;BME280_pressure;Samples;Min_cycle;Max_cycle;Signal;HPM_P1;HPM_P2
2023/01/03 00:00:06;;;;;;;1.73;1.40;;;7.60;99.90;;;;;;5026002;28;20253;-59
2023/01/03 00:02:31;;;;;;;1.60;1.50;;;7.60;99.90;;;;;;5027035;28;20179;-57
2023/01/03 00:04:57;;;;;;;1.33;1.23;;;7.60;99.90;;;;;;5021615;28;20427;-59
2023/01/03 00:07:35;;;;;;;1.37;1.27;;;7.60;99.90;;;;;;5025982;28;20199;-59
2023/01/03 00:10:10;;;;;;;2.87;1.30;;;7.60;99.90;;;;;;5024779;28;20203;-59
2023/01/03 00:12:36;;;;;;;2.30;1.40;;;7.60;99.90;;;;;;5021523;28;20642;-59
2023/01/03 00:15:03;;;;;;;1.47;1.37;;;7.60;99.90;;;;;;5026007;28;20425;-57
2023/01/03 00:17:28;;;;;;;3.17;1.50;;;7.60;99.90;;;;;;5027190;28;20504;-57
2023/01/03 00:19:54;;;;;;;1.50;1.40;;;7.50;99.90;;;;;;5023565;28;20936;-57
2023/01/03 00:22:20;;;;;;;2.83;1.20;;;7.60;99.90;;;;;;5028631;28;20191;-58
2023/01/03 00:24:47;;;;;;;1.40;1.30;;;7.50;99.90;;;;;;5043565;28;20207;-57
2023/01/03 00:27:14;;;;;;;1.53;1.17;;;7.50;99.90;;;;;;5021633;28;20198;-58
2023/01/03 00:29:40;;;;;;;1.47;1.37;;;7.50;99.90;;;;;;5026063;28;20469;-59
2023/01/03 00:32:06;;;;;;;1.40;1.30;;;7.50;99.90;;;;;;5030599;28;20427;-58
2023/01/03 00:34:33;;;;;;;1.90;1.80;;;7.50;99.90;;;;;;5026514;28;20444;-57
2023/01/03 00:36:58;;;;;;;1.73;1.63;;;7.50;99.90;;;;;;5027905;28;20447;-58
2023/01/03 00:39:24;;;;;;;3.13;1.80;;;7.50;99.90;;;;;;5019574;28;20437;-60
2023/01/03 00:41:50;;;;;;;1.33;1.30;;;7.50;99.90;;;;;;5029072;28;20176;-58
2023/01/03 00:44:16;;;;;;;1.40;1.30;;;7.50;99.90;;;;;;5022942;28;20503;-58
2023/01/03 00:46:42;;;;;;;1.43;1.30;;;7.50;99.90;;;;;;5025359;28;22266;-58
2023/01/03 00:49:08;;;;;;;2.07;1.50;;;7.50;99.90;;;;;;5025411;28;20461;-59
2023/01/03 00:51:36;;;;;;;2.40;1.30;;;7.40;99.90;;;;;;5013696;28;20333;-59
2023/01/03 00:54:03;;;;;;;1.30;1.20;;;7.40;99.90;;;;;;5019861;28;20970;-58
2023/01/03 00:56:38;;;;;;;1.80;1.70;;;7.40;99.90;;;;;;5020711;28;20451;-58
2023/01/03 00:59:05;;;;;;;1.20;1.10;;;7.40;99.90;;;;;;5014593;28;20443;-58
2023/01/03 01:01:39;;;;;;;2.40;2.10;;;7.40;99.90;;;;;;5021726;28;20406;-58
2023/01/03 01:04:08;;;;;;;2.27;1.63;;;7.40;99.90;;;;;;5021510;28;20430;-64
2023/01/03 01:06:38;;;;;;;2.50;1.27;;;7.40;99.90;;;;;;5031160;28;20438;-58
2023/01/03 01:09:05;;;;;;;1.50;1.40;;;7.40;99.90;;;;;;5027535;28;20461;-58
2023/01/03 01:11:31;;;;;;;1.40;1.30;;;7.40;99.90;;;;;;5018244;28;20629;-59
2023/01/03 01:13:57;;;;;;;3.57;1.73;;;7.40;99.90;;;;;;5022355;28;20466;-59
2023/01/03 01:16:26;;;;;;;2.00;1.60;;;7.40;99.90;;;;;;5016635;28;20458;-58
2023/01/03 01:18:52;;;;;;;2.27;2.07;;;7.40;99.90;;;;;;5028462;28;20180;-58
2023/01/03 01:21:29;;;;;;;6.80;2.20;;;7.40;99.90;;;;;;5032396;28;20433;-59
2023/01/03 01:23:56;;;;;;;3.90;2.10;;;7.40;99.90;;;;;;5020709;28;20430;-59
2023/01/03 01:26:23;;;;;;;3.63;2.40;;;7.40;99.90;;;;;;5020694;28;20450;-59
2023/01/03 01:28:50;;;;;;;5.03;2.50;;;7.40;99.90;;;;;;5028885;28;20827;-59
2023/01/03 01:31:19;;;;;;;2.47;2.20;;;7.40;99.90;;;;;;5017553;28;20423;-59
2023/01/03 01:33:45;;;;;;;2.10;1.90;;;7.40;99.90;;;;;;5026358;28;20908;-59
2023/01/03 01:36:20;;;;;;;3.10;2.50;;;7.30;99.90;;;;;;5012368;28;20959;-59
2023/01/03 01:38:47;;;;;;;5.43;2.10;;;7.30;99.90;;;;;;5022329;28;20568;-59
2023/01/03 01:44:36;;;;;;;2.07;1.90;;;7.30;99.90;;;;;;5015801;28;20454;-59
2023/01/03 01:46:45;;;;;;;1.73;1.30;;;7.30;99.90;;;;;;5022398;28;20468;-59
2023/01/03 01:49:17;;;;;;;4.43;1.33;;;7.30;99.90;;;;;;5028262;28;20454;-59
2023/01/03 01:51:43;;;;;;;1.40;1.20;;;7.30;99.90;;;;;;5016805;28;20168;-59
2023/01/03 01:54:09;;;;;;;1.60;1.30;;;7.20;99.90;;;;;;5026791;28;20430;-59
2023/01/03 01:56:42;;;;;;;1.47;1.37;;;7.20;99.90;;;;;;5016655;28;20192;-59
2023/01/03 01:59:10;;;;;;;1.90;1.13;;;7.20;99.90;;;;;;5013543;28;20449;-59
2023/01/03 02:01:36;;;;;;;1.50;1.30;;;7.20;99.90;;;;;;5025958;28;20441;-59
2023/01/03 02:04:06;;;;;;;1.63;1.13;;;7.20;99.90;;;;;;5024661;28;20469;-58
2023/01/03 02:06:32;;;;;;;1.50;1.40;;;7.20;99.90;;;;;;5017740;28;20451;-59
2023/01/03 02:08:58;;;;;;;1.47;1.37;;;7.20;99.90;;;;;;5021515;28;20586;-59
2023/01/03 02:11:35;;;;;;;2.20;1.50;;;7.20;99.90;;;;;;5018786;28;20438;-58
2023/01/03 02:14:19;;;;;;;4.70;1.80;;;7.20;99.90;;;;;;5018085;28;20184;-58
2023/01/03 02:17:03;;;;;;;1.73;1.53;;;7.20;99.90;;;;;;5025688;28;20450;-60
2023/01/03 02:19:47;;;;;;;2.53;1.63;;;7.20;99.90;;;;;;5019068;28;20431;-59
2023/01/03 02:22:36;;;;;;;1.53;1.37;;;7.20;99.90;;;;;;5017421;28;20434;-59
2023/01/03 02:25:16;;;;;;;1.60;1.50;;;7.20;99.90;;;;;;5015002;28;20438;-59
2023/01/03 02:28:03;;;;;;;1.50;1.40;;;7.20;99.90;;;;;;5016429;28;20453;-59
2023/01/03 02:30:37;;;;;;;6.77;4.00;;;7.20;99.90;;;;;;5017454;28;20450;-59
2023/01/03 02:33:17;;;;;;;2.50;2.00;;;7.20;99.90;;;;;;5020051;28;20426;-59
2023/01/03 02:35:59;;;;;;;2.00;1.90;;;7.30;99.90;;;;;;5014483;28;21045;-58
2023/01/03 02:38:52;;;;;;;2.97;1.63;;;7.30;99.90;;;;;;5031068;28;21200;-59
2023/01/03 02:42:56;;;;;;;3.03;1.63;;;7.30;99.90;;;;;;5020349;28;20979;-58
2023/01/03 02:45:09;;;;;;;2.60;1.73;;;7.30;99.90;;;;;;5010711;28;20427;-58
2023/01/03 02:47:48;;;;;;;6.70;2.90;;;7.20;99.90;;;;;;5024345;28;20547;-58
2023/01/03 02:50:14;;;;;;;4.87;2.93;;;7.30;99.90;;;;;;5023339;28;20812;-59
2023/01/03 02:52:42;;;;;;;3.63;2.80;;;7.30;99.90;;;;;;5021064;28;20407;-59
2023/01/03 02:55:19;;;;;;;2.30;2.10;;;7.20;99.90;;;;;;5023235;28;20428;-59
2023/01/03 02:58:00;;;;;;;1.50;1.40;;;7.20;99.90;;;;;;5023632;28;20426;-58
2023/01/03 03:00:29;;;;;;;1.40;1.30;;;7.20;99.90;;;;;;5013411;28;20430;-58
2023/01/03 03:03:05;;;;;;;1.40;1.30;;;7.20;99.90;;;;;;5024193;28;20422;-58
2023/01/03 03:05:41;;;;;;;1.47;1.37;;;7.20;99.90;;;;;;5024929;28;20438;-58
2023/01/03 03:08:07;;;;;;;1.50;1.40;;;7.20;99.90;;;;;;5013737;28;20430;-58
2023/01/03 03:13:35;;;;;;;1.37;1.27;;;7.10;99.90;;;;;;5015554;28;21099;-58
2023/01/03 03:16:04;;;;;;;2.83;1.13;;;7.10;99.90;;;;;;5017433;28;20450;-59
2023/01/03 03:18:42;;;;;;;3.27;1.30;;;7.10;99.90;;;;;;5023380;28;20442;-58
2023/01/03 03:26:49;;;;;;;2.33;1.40;;;7.10;99.90;;;;;;5012784;28;20493;-58
2023/01/03 03:29:17;;;;;;;2.00;1.90;;;7.10;99.90;;;;;;5023908;28;20458;-58
2023/01/03 03:31:46;;;;;;;6.10;3.17;;;7.10;99.90;;;;;;5019461;28;20415;-58
2023/01/03 03:34:18;;;;;;;3.87;3.03;;;7.10;99.90;;;;;;5021083;28;20461;-59
2023/01/03 03:37:01;;;;;;;2.30;2.10;;;7.10;99.90;;;;;;5016067;28;20454;-58
2023/01/03 03:45:32;;;;;;;1.50;1.40;;;7.10;99.90;;;;;;5020891;28;21093;-59
2023/01/03 03:48:27;;;;;;;2.37;2.17;;;7.10;99.90;;;;;;5022638;28;20438;-59
2023/01/03 03:51:05;;;;;;;1.97;1.77;;;7.10;99.90;;;;;;5011234;28;20446;-58
2023/01/03 03:53:34;;;;;;;3.07;2.30;;;7.10;99.90;;;;;;5023345;28;20811;-59
2023/01/03 03:56:13;;;;;;;2.27;2.00;;;7.10;99.90;;;;;;5013462;28;20451;-58
2023/01/03 03:58:44;;;;;;;2.40;1.93;;;7.10;99.90;;;;;;5017750;28;20445;-58
2023/01/03 04:01:14;;;;;;;2.30;2.10;;;7.00;99.90;;;;;;5022063;28;20467;-58
2023/01/03 04:03:43;;;;;;;2.30;1.83;;;7.10;99.90;;;;;;5014709;28;20941;-58
2023/01/03 04:06:14;;;;;;;2.83;2.20;;;7.00;99.90;;;;;;5020946;28;21061;-58
2023/01/03 04:08:40;;;;;;;1.80;1.70;;;7.00;99.90;;;;;;5021562;28;20427;-58
2023/01/03 04:11:06;;;;;;;4.77;2.23;;;6.90;99.90;;;;;;5037915;28;20886;-58
2023/01/03 04:13:36;;;;;;;3.03;1.70;;;6.90;99.90;;;;;;5020646;28;20596;-57
2023/01/03 04:16:03;;;;;;;1.97;1.77;;;6.90;99.90;;;;;;5012566;28;20192;-57
2023/01/03 04:18:29;;;;;;;2.40;1.50;;;6.90;99.90;;;;;;5017118;28;20511;-57
2023/01/03 04:20:55;;;;;;;1.90;1.80;;;6.90;99.90;;;;;;5028868;28;20527;-58
2023/01/03 04:23:21;;;;;;;1.70;1.60;;;6.80;99.90;;;;;;5020459;28;20191;-57
2023/01/03 04:25:48;;;;;;;2.80;1.90;;;6.80;99.90;;;;;;5024755;28;20188;-58
2023/01/03 04:28:14;;;;;;;3.17;1.40;;;6.80;99.90;;;;;;5028096;28;20427;-59
2023/01/03 04:30:39;;;;;;;1.70;1.60;;;6.80;99.90;;;;;;5017958;28;20466;-59
2023/01/03 04:33:05;;;;;;;1.90;1.80;;;6.80;99.90;;;;;;5028703;28;20434;-59
2023/01/03 04:35:32;;;;;;;3.20;2.90;;;6.80;99.90;;;;;;5020634;28;20177;-60
2023/01/03 04:37:57;;;;;;;2.50;2.30;;;6.80;99.90;;;;;;5023681;28;20175;-58
2023/01/03 04:40:23;;;;;;;3.83;1.93;;;6.80;99.90;;;;;;5024867;28;20506;-58
2023/01/03 04:45:34;;;;;;;3.07;2.30;;;6.80;99.90;;;;;;5025375;28;20734;-58
2023/01/03 04:48:00;;;;;;;2.30;2.00;;;6.80;99.90;;;;;;5025333;28;20811;-59
2023/01/03 04:50:25;;;;;;;4.20;2.27;;;6.80;99.90;;;;;;5023468;28;21493;-58
2023/01/03 04:52:51;;;;;;;4.43;2.03;;;6.80;99.90;;;;;;5028284;28;20172;-59
2023/01/03 04:55:17;;;;;;;2.20;2.00;;;6.80;99.90;;;;;;5021633;28;20279;-59
2023/01/03 04:57:42;;;;;;;2.37;2.17;;;6.70;99.90;;;;;;5023722;28;20418;-59
2023/01/03 05:00:09;;;;;;;3.90;2.10;;;6.70;99.90;;;;;;5019192;28;20219;-59
2023/01/03 05:02:34;;;;;;;2.33;2.13;;;6.70;99.90;;;;;;5008521;28;21434;-64
2023/01/03 05:05:00;;;;;;;2.53;1.73;;;6.70;99.90;;;;;;5010624;28;20434;-60
2023/01/03 05:07:29;;;;;;;1.50;1.40;;;6.70;99.90;;;;;;5018284;28;20227;-61
2023/01/03 05:09:54;;;;;;;1.70;1.60;;;6.70;99.90;;;;;;5018682;28;20579;-60
2023/01/03 05:12:20;;;;;;;1.53;1.27;;;6.70;99.90;;;;;;5024091;28;20438;-59
2023/01/03 05:14:45;;;;;;;4.40;1.37;;;6.70;99.90;;;;;;5022567;28;20632;-60
2023/01/03 05:17:11;;;;;;;2.03;1.70;;;6.60;99.90;;;;;;5020380;28;20760;-59
2023/01/03 05:25:48;;;;;;;9.20;4.20;;;6.60;99.90;;;;;;5022712;28;20183;-59
2023/01/03 05:27:53;;;;;;;2.73;1.87;;;6.60;99.90;;;;;;5026201;28;20441;-60
2023/01/03 05:30:19;;;;;;;1.53;1.40;;;6.60;99.90;;;;;;5023307;28;20462;-59
2023/01/03 05:32:45;;;;;;;2.73;1.47;;;6.60;99.90;;;;;;5023754;28;20805;-59
2023/01/03 05:35:10;;;;;;;3.13;1.77;;;6.60;99.90;;;;;;5019810;28;20176;-59
2023/01/03 05:37:36;;;;;;;3.07;1.60;;;6.60;99.90;;;;;;5020904;28;20200;-60
2023/01/03 05:40:01;;;;;;;4.73;2.60;;;6.60;99.90;;;;;;5026109;28;20190;-58
2023/01/03 05:42:27;;;;;;;4.00;1.97;;;6.60;99.90;;;;;;5018934;28;20191;-58
2023/01/03 05:44:53;;;;;;;1.70;1.60;;;6.60;99.90;;;;;;5016736;28;20724;-62
2023/01/03 05:47:19;;;;;;;3.17;1.50;;;6.50;99.90;;;;;;5011687;28;20284;-61
2023/01/03 05:49:44;;;;;;;1.50;1.40;;;6.60;99.90;;;;;;5020516;28;20204;-60
2023/01/03 05:52:10;;;;;;;1.93;1.73;;;6.50;99.90;;;;;;5020353;28;20451;-60
2023/01/03 05:54:36;;;;;;;2.00;1.57;;;6.50;99.90;;;;;;5016513;28;20180;-60
2023/01/03 05:57:01;;;;;;;1.47;1.37;;;6.50;99.90;;;;;;5028536;28;20778;-60
2023/01/03 05:59:27;;;;;;;1.50;1.40;;;6.50;99.90;;;;;;5022684;28;20195;-60
2023/01/03 06:01:52;;;;;;;1.50;1.40;;;6.50;99.90;;;;;;5021424;28;20176;-60
2023/01/03 06:04:18;;;;;;;1.60;1.50;;;6.50;99.90;;;;;;5019637;28;20378;-62
2023/01/03 06:06:44;;;;;;;11.13;2.20;;;6.40;99.90;;;;;;5018045;28;20210;-60
2023/01/03 06:09:10;;;;;;;1.93;1.57;;;6.40;99.90;;;;;;5022267;28;20218;-60
2023/01/03 06:11:35;;;;;;;1.53;1.43;;;6.40;99.90;;;;;;5023984;28;20633;-60
2023/01/03 06:14:01;;;;;;;1.53;1.30;;;6.40;99.90;;;;;;5019285;28;20434;-60
2023/01/03 06:19:11;;;;;;;1.63;1.37;;;6.50;99.90;;;;;;5023001;28;20188;-60
2023/01/03 06:21:37;;;;;;;1.50;1.40;;;6.40;99.90;;;;;;5017495;28;20414;-61
2023/01/03 06:24:03;;;;;;;1.73;1.60;;;6.40;99.90;;;;;;5021297;28;20176;-59
2023/01/03 06:26:29;;;;;;;2.13;1.63;;;6.40;99.90;;;;;;5026552;28;20204;-60
2023/01/03 06:28:55;;;;;;;1.93;1.70;;;6.40;99.90;;;;;;5020245;28;20469;-60
2023/01/03 06:31:21;;;;;;;3.93;1.53;;;6.40;99.90;;;;;;5014727;28;20210;-60
2023/01/03 06:33:47;;;;;;;1.93;1.70;;;6.40;99.90;;;;;;5037552;28;21044;-60
2023/01/03 06:36:18;;;;;;;2.33;1.97;;;6.40;99.90;;;;;;5023111;28;20349;-59
2023/01/03 06:38:44;;;;;;;2.00;1.90;;;6.40;99.90;;;;;;5023414;28;21242;-60
2023/01/03 06:41:10;;;;;;;2.50;1.80;;;6.40;99.90;;;;;;5020882;28;20438;-60
2023/01/03 06:43:36;;;;;;;2.30;2.00;;;6.40;99.90;;;;;;5015721;28;20802;-60
2023/01/03 06:54:25;;;;;;;3.63;2.70;;;6.40;99.90;;;;;;5018865;28;20489;-59
2023/01/03 06:56:52;;;;;;;9.63;3.23;;;6.30;99.90;;;;;;5019024;28;20982;-60
2023/01/03 06:59:18;;;;;;;3.80;3.40;;;6.30;99.90;;;;;;5017868;28;20525;-60
2023/01/03 07:01:45;;;;;;;3.57;3.27;;;6.30;99.90;;;;;;5019402;28;20415;-59
2023/01/03 07:04:11;;;;;;;3.57;3.27;;;6.30;99.90;;;;;;5015563;28;20814;-60
2023/01/03 07:06:37;;;;;;;3.27;2.97;;;6.30;99.90;;;;;;5017448;28;20455;-60
2023/01/03 07:09:02;;;;;;;5.30;2.70;;;6.30;99.90;;;;;;5029936;28;20200;-60
2023/01/03 07:11:28;;;;;;;3.10;2.50;;;6.30;99.90;;;;;;5022218;28;20841;-60
2023/01/03 07:13:57;;;;;;;2.67;2.47;;;6.20;99.90;;;;;;5024332;28;20183;-59
2023/01/03 07:16:23;;;;;;;3.87;2.70;;;6.20;99.90;;;;;;5022861;28;20711;-59
2023/01/03 07:18:49;;;;;;;2.43;2.23;;;6.20;99.90;;;;;;5014666;28;20560;-60
2023/01/03 07:21:14;;;;;;;2.60;2.20;;;6.20;99.90;;;;;;5022508;28;20172;-60
2023/01/03 07:23:40;;;;;;;3.80;2.30;;;6.20;99.90;;;;;;5021052;28;20422;-60
2023/01/03 07:26:06;;;;;;;4.27;2.67;;;6.20;99.90;;;;;;5009180;28;20192;-60
2023/01/03 07:28:32;;;;;;;2.60;2.40;;;6.20;99.90;;;;;;5021425;28;20456;-60
2023/01/03 07:31:05;;;;;;;3.57;2.57;;;6.20;99.90;;;;;;5016927;28;20442;-60
2023/01/03 07:33:32;;;;;;;3.30;2.50;;;6.10;99.90;;;;;;5018935;28;20184;-60
2023/01/03 07:36:05;;;;;;;4.17;2.63;;;6.20;99.90;;;;;;5016150;28;20515;-60
2023/01/03 07:38:31;;;;;;;9.83;2.70;;;6.10;99.90;;;;;;5023384;28;20450;-60
2023/01/03 07:41:01;;;;;;;3.20;2.87;;;6.10;99.90;;;;;;5027609;28;20430;-60
2023/01/03 07:43:36;;;;;;;3.63;2.50;;;6.10;99.90;;;;;;5025807;28;20187;-60
2023/01/03 07:46:07;;;;;;;5.03;3.13;;;6.10;99.90;;;;;;5022549;28;20478;-59
2023/01/03 07:48:34;;;;;;;5.90;2.80;;;6.10;99.90;;;;;;5023304;28;20443;-59
2023/01/03 07:51:00;;;;;;;2.90;2.60;;;6.10;99.90;;;;;;5011868;28;20537;-59
2023/01/03 07:53:26;;;;;;;3.53;1.97;;;6.10;99.90;;;;;;5024072;28;20525;-59
2023/01/03 07:55:52;;;;;;;2.80;2.00;;;6.10;99.90;;;;;;5027293;28;21038;-60
2023/01/03 07:58:17;;;;;;;2.30;2.10;;;6.10;99.90;;;;;;5029414;28;20401;-59
2023/01/03 08:00:43;;;;;;;6.63;1.90;;;6.10;99.90;;;;;;5024575;28;20176;-59
2023/01/03 08:03:09;;;;;;;1.87;1.70;;;6.10;99.90;;;;;;5023728;28;20184;-57
2023/01/03 08:05:35;;;;;;;1.80;1.70;;;6.10;99.90;;;;;;5020229;28;20172;-59
2023/01/03 08:08:02;;;;;;;2.33;2.00;;;6.10;99.90;;;;;;5023771;28;20467;-59
2023/01/03 08:13:17;;;;;;;1.50;1.40;;;6.10;99.90;;;;;;5015275;28;20433;-60
2023/01/03 08:15:44;;;;;;;1.83;1.73;;;6.20;99.90;;;;;;5020550;28;20528;-59
2023/01/03 08:18:11;;;;;;;3.83;1.50;;;6.20;99.90;;;;;;5017002;28;20433;-58
2023/01/03 08:20:37;;;;;;;2.23;1.60;;;6.30;99.90;;;;;;5023922;28;20449;-59
2023/01/03 08:23:02;;;;;;;1.97;1.70;;;6.30;99.90;;;;;;5023753;28;20430;-59
2023/01/03 08:25:28;;;;;;;5.27;1.67;;;6.40;99.90;;;;;;5020290;28;20435;-60
2023/01/03 08:27:57;;;;;;;2.07;1.87;;;6.40;99.90;;;;;;5023754;28;20332;-59
2023/01/03 08:30:23;;;;;;;10.40;2.80;;;6.40;99.90;;;;;;5022009;28;20203;-59
2023/01/03 08:32:48;;;;;;;7.27;3.67;;;6.50;99.90;;;;;;5022633;28;20432;-59
2023/01/03 08:35:15;;;;;;;12.37;4.40;;;6.50;99.90;;;;;;5023622;28;20433;-59
2023/01/03 08:37:43;;;;;;;5.20;3.97;;;6.60;99.90;;;;;;5020745;28;20279;-60
2023/01/03 08:40:10;;;;;;;10.57;4.57;;;6.60;99.90;;;;;;5022849;28;20481;-59
2023/01/03 08:42:36;;;;;;;10.40;4.43;;;6.60;99.90;;;;;;5022592;28;20469;-59
2023/01/03 08:45:05;;;;;;;7.70;4.80;;;6.60;99.90;;;;;;5018727;28;20458;-60
2023/01/03 08:47:31;;;;;;;6.67;4.10;;;6.60;99.90;;;;;;5020745;28;20468;-58
2023/01/03 08:49:58;;;;;;;5.87;3.37;;;6.60;99.90;;;;;;5023406;28;20461;-59
2023/01/03 08:52:24;;;;;;;6.93;4.50;;;6.60;99.90;;;;;;5022847;28;20426;-59
2023/01/03 08:54:49;;;;;;;6.57;3.70;;;6.50;99.90;;;;;;5018867;28;20421;-59
2023/01/03 08:57:15;;;;;;;6.57;4.50;;;6.60;99.90;;;;;;5015016;28;20195;-59
2023/01/03 08:59:40;;;;;;;6.73;4.47;;;6.60;99.90;;;;;;5018997;28;20183;-58
2023/01/03 09:02:06;;;;;;;4.53;3.73;;;6.60;99.90;;;;;;5017994;28;20181;-60
2023/01/03 09:04:32;;;;;;;6.20;3.90;;;6.60;99.90;;;;;;5020109;28;20191;-60
2023/01/03 09:06:57;;;;;;;4.60;3.63;;;6.60;99.90;;;;;;5022109;28;20204;-59
2023/01/03 09:09:23;;;;;;;5.53;3.57;;;6.50;99.90;;;;;;5021063;28;20208;-60
2023/01/03 09:11:48;;;;;;;5.70;3.50;;;6.50;99.90;;;;;;5021071;28;20574;-59
2023/01/03 09:14:14;;;;;;;5.90;3.07;;;6.50;99.90;;;;;;5019613;28;20172;-60
2023/01/03 09:16:40;;;;;;;4.30;3.40;;;6.60;99.90;;;;;;5019289;28;20748;-60
2023/01/03 09:19:05;;;;;;;4.40;3.40;;;6.50;99.90;;;;;;5021746;28;20581;-59
2023/01/03 09:21:31;;;;;;;4.00;3.23;;;6.60;99.90;;;;;;5018953;28;20259;-60
2023/01/03 09:23:57;;;;;;;4.20;3.40;;;6.60;99.90;;;;;;5020565;28;20187;-60
2023/01/03 09:26:23;;;;;;;5.33;3.90;;;6.60;99.90;;;;;;5020337;28;20360;-59
2023/01/03 09:28:49;;;;;;;4.47;3.33;;;6.70;99.90;;;;;;5022342;28;20414;-59
2023/01/03 09:31:15;;;;;;;4.20;3.73;;;6.70;99.90;;;;;;5019549;28;20429;-60
2023/01/03 09:33:41;;;;;;;4.30;3.20;;;6.80;99.90;;;;;;5017519;28;20179;-60
2023/01/03 09:36:07;;;;;;;7.33;3.63;;;6.80;99.90;;;;;;5013151;28;20462;-59
2023/01/03 09:38:32;;;;;;;3.60;2.97;;;6.90;99.90;;;;;;5020898;28;20438;-61
2023/01/03 09:41:05;;;;;;;3.47;3.17;;;6.90;99.90;;;;;;5017298;28;20177;-59
2023/01/03 09:43:44;;;;;;;4.27;3.07;;;7.00;99.90;;;;;;5021599;28;20176;-59
2023/01/03 09:46:19;;;;;;;4.77;2.67;;;7.00;99.90;;;;;;5016117;28;20707;-60
2023/01/03 09:48:47;;;;;;;4.03;2.47;;;7.00;99.90;;;;;;5020295;28;20557;-59
2023/01/03 10:03:43;;;;;;;3.63;2.63;;;7.10;99.90;;;;;;5021598;28;20810;-60
2023/01/03 10:06:21;;;;;;;3.87;2.43;;;7.10;99.90;;;;;;5017071;28;20460;-60
2023/01/03 10:09:16;;;;;;;4.00;2.80;;;7.10;99.90;;;;;;5018194;28;20442;-60
2023/01/03 10:11:44;;;;;;;3.37;2.60;;;7.10;99.90;;;;;;4990223;28;20865;-60
2023/01/03 10:14:51;;;;;;;3.20;2.90;;;7.20;99.90;;;;;;5019151;28;20457;-59
2023/01/03 10:17:33;;;;;;;2.57;2.37;;;7.20;99.90;;;;;;5018243;28;21034;-60
2023/01/03 10:20:19;;;;;;;3.30;2.70;;;7.20;99.90;;;;;;5021301;28;20437;-60
2023/01/03 10:22:47;;;;;;;3.40;2.80;;;7.20;99.90;;;;;;5016153;28;20541;-60
2023/01/03 10:25:16;;;;;;;4.27;2.80;;;7.20;99.90;;;;;;5019171;28;20960;-60
2023/01/03 10:28:13;;;;;;;7.13;2.80;;;7.20;99.90;;;;;;5013775;28;20458;-60
2023/01/03 10:31:27;;;;;;;4.00;2.67;;;7.20;99.90;;;;;;5005638;28;20482;-60
2023/01/03 10:33:52;;;;;;;4.33;2.60;;;7.30;99.90;;;;;;5020970;28;20431;-60
2023/01/03 10:36:19;;;;;;;2.83;2.37;;;7.30;99.90;;;;;;5020941;28;20455;-61
2023/01/03 10:38:45;;;;;;;2.77;2.50;;;7.40;99.90;;;;;;5018204;28;20184;-60
2023/01/03 10:41:46;;;;;;;4.67;2.53;;;7.40;99.90;;;;;;5017802;28;20934;-61
2023/01/03 10:44:24;;;;;;;3.20;1.97;;;7.40;99.90;;;;;;5019129;28;20190;-61
2023/01/03 10:46:53;;;;;;;2.30;2.07;;;7.50;99.90;;;;;;5018110;28;20461;-62
2023/01/03 10:49:21;;;;;;;3.20;2.20;;;7.60;99.90;;;;;;5018450;28;20466;-60
2023/01/03 10:52:08;;;;;;;3.37;1.83;;;7.60;99.90;;;;;;5017357;28;20483;-60
2023/01/03 10:54:39;;;;;;;3.33;1.80;;;7.60;99.90;;;;;;5017647;28;20449;-60
2023/01/03 10:57:05;;;;;;;4.50;1.90;;;7.60;99.90;;;;;;5022037;28;21295;-60
2023/01/03 10:59:31;;;;;;;1.57;1.47;;;7.70;99.90;;;;;;5018557;28;20434;-60
2023/01/03 11:01:57;;;;;;;3.37;1.50;;;7.70;99.90;;;;;;5030939;28;20184;-60
2023/01/03 11:04:23;;;;;;;2.10;1.50;;;7.80;99.90;;;;;;5019966;28;20438;-60
2023/01/03 11:07:07;;;;;;;3.60;1.53;;;7.70;99.90;;;;;;5020448;28;20301;-61
2023/01/03 11:09:55;;;;;;;2.47;1.40;;;7.80;99.90;;;;;;5016366;28;20473;-60
2023/01/03 11:12:33;;;;;;;3.37;1.60;;;7.90;99.90;;;;;;5020092;28;20437;-60
2023/01/03 11:15:03;;;;;;;1.50;1.40;;;7.90;99.90;;;;;;5016366;28;20445;-61
2023/01/03 11:17:29;;;;;;;1.33;1.23;;;8.00;99.90;;;;;;5016516;28;20656;-61
2023/01/03 11:19:56;;;;;;;1.63;1.53;;;8.00;99.90;;;;;;5018290;28;20953;-60
2023/01/03 11:22:43;;;;;;;1.57;1.47;;;8.00;99.90;;;;;;5013471;28;20442;-59
2023/01/03 11:25:36;;;;;;;1.83;1.73;;;8.00;99.90;;;;;;5044921;28;20981;-60
2023/01/03 11:28:20;;;;;;;2.33;1.87;;;8.10;99.90;;;;;;5020094;28;20466;-60
2023/01/03 11:31:18;;;;;;;1.70;1.60;;;8.10;99.90;;;;;;5021694;28;20473;-60
2023/01/03 11:33:54;;;;;;;1.83;1.73;;;8.10;99.90;;;;;;5022127;28;20943;-60
2023/01/03 11:36:35;;;;;;;4.17;1.63;;;8.10;99.90;;;;;;5018725;28;20466;-60
2023/01/03 11:39:18;;;;;;;2.60;1.70;;;8.20;99.90;;;;;;5021909;28;20960;-62
2023/01/03 11:42:02;;;;;;;3.40;1.80;;;8.20;99.90;;;;;;5020661;28;20450;-61
2023/01/03 11:44:45;;;;;;;1.83;1.73;;;8.20;99.90;;;;;;5015884;28;20514;-61
2023/01/03 11:47:17;;;;;;;3.07;1.93;;;8.30;99.90;;;;;;5022143;28;20524;-62
2023/01/03 11:49:55;;;;;;;2.20;1.80;;;8.30;99.90;;;;;;5024064;28;20516;-62
2023/01/03 11:52:26;;;;;;;2.00;1.90;;;8.40;99.90;;;;;;5018780;28;20426;-59
2023/01/03 11:54:58;;;;;;;1.50;1.40;;;8.40;99.90;;;;;;5024439;28;20427;-59
2023/01/03 11:57:48;;;;;;;2.50;1.80;;;8.50;99.90;;;;;;5016920;28;20466;-59
2023/01/03 12:00:40;;;;;;;5.87;1.97;;;8.60;99.90;;;;;;5025595;28;20431;-59
2023/01/03 12:03:21;;;;;;;1.60;1.50;;;8.70;99.90;;;;;;5021722;28;20495;-60
2023/01/03 12:05:54;;;;;;;1.80;1.70;;;8.90;99.90;;;;;;5021898;28;21168;-60
2023/01/03 12:08:50;;;;;;;2.57;1.80;;;9.00;99.90;;;;;;5021660;28;20477;-61
2023/01/03 12:11:33;;;;;;;2.60;1.80;;;9.10;99.90;;;;;;5021479;28;20864;-61
2023/01/03 12:14:08;;;;;;;5.40;1.70;;;9.20;99.90;;;;;;5020104;28;20453;-60
2023/01/03 12:16:50;;;;;;;1.70;1.60;;;9.20;99.90;;;;;;5022211;28;21073;-61
2023/01/03 12:19:24;;;;;;;2.60;1.70;;;9.20;99.90;;;;;;5024632;28;20433;-60
2023/01/03 12:22:00;;;;;;;1.93;1.83;;;9.20;99.90;;;;;;5023810;28;20615;-62
2023/01/03 12:24:39;;;;;;;2.67;2.23;;;9.20;99.90;;;;;;5021305;28;21083;-60
2023/01/03 12:27:16;;;;;;;3.20;2.20;;;9.20;99.90;;;;;;5016177;28;20469;-60
2023/01/03 12:30:06;;;;;;;5.53;3.37;;;9.20;99.90;;;;;;5015885;28;20454;-60
2023/01/03 12:32:44;;;;;;;3.67;2.70;;;9.20;99.90;;;;;;5018116;28;20447;-60
2023/01/03 12:35:25;;;;;;;4.00;3.13;;;9.20;99.90;;;;;;5018820;28;20507;-63
2023/01/03 12:37:51;;;;;;;5.83;2.77;;;9.10;99.90;;;;;;5019042;28;20895;-61
2023/01/03 12:40:33;;;;;;;4.10;2.23;;;9.00;99.90;;;;;;5019990;28;20434;-61
2023/01/03 12:43:04;;;;;;;2.93;2.33;;;8.90;99.90;;;;;;5016093;28;20207;-61
2023/01/03 12:45:52;;;;;;;3.93;2.43;;;8.90;99.90;;;;;;5018927;28;20550;-61
2023/01/03 12:48:32;;;;;;;6.00;2.40;;;8.80;99.90;;;;;;5019222;28;20977;-61
2023/01/03 12:50:57;;;;;;;3.50;2.80;;;8.70;99.90;;;;;;5022138;28;20466;-61
2023/01/03 12:53:26;;;;;;;4.87;2.80;;;8.70;99.90;;;;;;5019742;28;20438;-61
2023/01/03 12:55:59;;;;;;;3.50;2.57;;;8.60;99.90;;;;;;5015179;28;20658;-61
2023/01/03 12:58:49;;;;;;;2.33;2.13;;;8.60;99.90;;;;;;5021976;28;20472;-61
2023/01/03 13:01:27;;;;;;;3.90;2.10;;;8.50;99.90;;;;;;5020139;28;20450;-60
2023/01/03 13:03:59;;;;;;;3.60;2.50;;;8.40;99.90;;;;;;5022986;28;20990;-61
2023/01/03 13:06:32;;;;;;;6.63;3.87;;;8.30;99.90;;;;;;5018242;28;20454;-61
2023/01/03 13:09:05;;;;;;;5.70;2.80;;;8.30;99.90;;;;;;5020509;28;20458;-61
2023/01/03 13:11:49;;;;;;;8.77;2.70;;;8.20;99.90;;;;;;5021713;28;20486;-61
2023/01/03 13:14:24;;;;;;;3.43;2.60;;;8.20;99.90;;;;;;5018208;28;20786;-61
2023/01/03 13:17:11;;;;;;;3.87;2.70;;;8.20;99.90;;;;;;5020510;28;20457;-60
2023/01/03 13:19:39;;;;;;;2.80;2.50;;;8.10;99.90;;;;;;5015906;28;22155;-61
2023/01/03 13:22:31;;;;;;;3.50;1.97;;;8.10;99.90;;;;;;5019483;28;20435;-61
2023/01/03 13:25:38;;;;;;;2.40;2.20;;;8.10;99.90;;;;;;5019297;28;20436;-61
2023/01/03 13:28:18;;;;;;;2.63;1.90;;;8.20;99.90;;;;;;5017796;28;20433;-61
2023/01/03 13:30:45;;;;;;;3.83;2.50;;;8.10;99.90;;;;;;5019463;28;20835;-61
2023/01/03 13:33:10;;;;;;;2.40;1.90;;;8.10;99.90;;;;;;5018784;28;20434;-61
2023/01/03 13:35:51;;;;;;;2.27;1.83;;;8.10;99.90;;;;;;5019709;28;20434;-61
2023/01/03 13:38:18;;;;;;;2.87;2.10;;;8.10;99.90;;;;;;5018076;28;20207;-61
2023/01/03 13:40:47;;;;;;;3.30;1.70;;;8.20;99.90;;;;;;5023889;28;20457;-63
2023/01/03 13:43:17;;;;;;;6.23;1.80;;;8.30;99.90;;;;;;5022692;28;20530;-60
2023/01/03 13:45:43;;;;;;;1.50;1.40;;;8.40;99.90;;;;;;5019823;28;20989;-62
2023/01/03 13:48:31;;;;;;;3.40;1.77;;;8.50;99.90;;;;;;5014684;28;20435;-61
2023/01/03 13:51:15;;;;;;;2.07;1.80;;;8.50;99.90;;;;;;5017342;28;20199;-61
2023/01/03 13:54:11;;;;;;;2.80;1.90;;;8.40;99.90;;;;;;5023494;28;20438;-61
2023/01/03 13:56:43;;;;;;;1.60;1.50;;;8.40;99.90;;;;;;5021045;28;20462;-61
2023/01/03 13:59:16;;;;;;;2.70;1.50;;;8.40;99.90;;;;;;5013947;28;20943;-62
2023/01/03 14:02:16;;;;;;;3.43;2.17;;;8.30;99.90;;;;;;5017225;28;20438;-62
2023/01/03 14:05:06;;;;;;;2.87;1.60;;;8.30;99.90;;;;;;5018463;28;20441;-60
2023/01/03 14:07:40;;;;;;;3.30;2.10;;;8.30;99.90;;;;;;5021773;28;20863;-61
2023/01/03 14:10:36;;;;;;;2.27;1.90;;;8.30;99.90;;;;;;5023340;28;20488;-61
2023/01/03 14:13:34;;;;;;;3.80;3.10;;;8.40;99.90;;;;;;5020467;28;20442;-60